TimeCDT,TemperatureF,Dew PointF,Humidity,Sea Level PressureIn,VisibilityMPH,Wind Direction,Wind SpeedMPH,Gust SpeedMPH,PrecipitationIn,Events,Conditions,WindDirDegrees,DateUTC
12:15 AM,66.2,51.8,60,29.89,10.0,WNW,8.1,-,N/A,,Scattered Clouds,300,2013-06-29 05:15:00
12:35 AM,66.2,51.8,60,29.88,10.0,WNW,6.9,-,N/A,,Clear,300,2013-06-29 05:35:00
12:55 AM,66.2,51.8,60,29.88,10.0,NW,8.1,-,N/A,,Scattered Clouds,310,2013-06-29 05:55:00
1:15 AM,66.2,51.8,60,29.88,10.0,WNW,6.9,-,N/A,,Clear,300,2013-06-29 06:15:00
1:35 AM,64.4,51.8,64,29.88,10.0,WNW,6.9,-,N/A,,Clear,290,2013-06-29 06:35:00
1:55 AM,64.4,51.8,64,29.87,10.0,WNW,6.9,-,N/A,,Scattered Clouds,300,2013-06-29 06:55:00
2:15 AM,64.4,51.8,64,29.87,10.0,WNW,6.9,-,N/A,,Scattered Clouds,300,2013-06-29 07:15:00
2:35 AM,62.6,53.6,72,29.87,10.0,WNW,6.9,-,N/A,,Scattered Clouds,290,2013-06-29 07:35:00
2:55 AM,62.6,53.6,72,29.87,10.0,WNW,9.2,-,N/A,,Scattered Clouds,290,2013-06-29 07:55:00
3:15 AM,64.4,51.8,64,29.87,10.0,WNW,10.4,-,N/A,,Scattered Clouds,290,2013-06-29 08:15:00
3:35 AM,64.4,51.8,64,29.86,10.0,WNW,9.2,-,N/A,,Scattered Clouds,290,2013-06-29 08:35:00
3:55 AM,64.4,51.8,64,29.87,10.0,WNW,8.1,-,N/A,,Scattered Clouds,300,2013-06-29 08:55:00
4:15 AM,64.4,51.8,64,29.87,10.0,WNW,9.2,-,N/A,,Scattered Clouds,300,2013-06-29 09:15:00
4:35 AM,64.4,51.8,64,29.87,10.0,WNW,9.2,-,N/A,,Scattered Clouds,300,2013-06-29 09:35:00
4:55 AM,64.4,51.8,64,29.88,10.0,WNW,9.2,-,N/A,,Scattered Clouds,300,2013-06-29 09:55:00
5:15 AM,64.4,51.8,64,29.88,10.0,WNW,9.2,-,N/A,,Scattered Clouds,300,2013-06-29 10:15:00
5:35 AM,64.4,51.8,64,29.88,10.0,WNW,8.1,-,N/A,,Scattered Clouds,300,2013-06-29 10:35:00
5:55 AM,62.6,51.8,68,29.88,10.0,NW,10.4,-,N/A,,Scattered Clouds,310,2013-06-29 10:55:00
6:15 AM,62.6,51.8,68,29.88,10.0,NW,9.2,-,N/A,,Scattered Clouds,310,2013-06-29 11:15:00
6:35 AM,64.4,51.8,64,29.89,10.0,WNW,9.2,-,N/A,,Clear,300,2013-06-29 11:35:00
6:55 AM,64.4,53.6,68,29.89,10.0,WNW,9.2,-,N/A,,Scattered Clouds,300,2013-06-29 11:55:00
7:15 AM,66.2,53.6,64,29.88,10.0,NW,8.1,-,N/A,,Clear,310,2013-06-29 12:15:00
7:35 AM,66.2,53.6,64,29.89,10.0,NW,10.4,-,N/A,,Scattered Clouds,310,2013-06-29 12:35:00
7:55 AM,68.0,55.4,64,29.89,10.0,WNW,9.2,-,N/A,,Scattered Clouds,300,2013-06-29 12:55:00
8:15 AM,69.8,53.6,56,29.88,10.0,NW,13.8,17.3,N/A,,Scattered Clouds,310,2013-06-29 13:15:00
8:35 AM,71.6,55.4,57,29.89,10.0,NW,10.4,17.3,N/A,,Scattered Clouds,310,2013-06-29 13:35:00
8:55 AM,71.6,53.6,53,29.89,10.0,NW,15.0,24.2,N/A,,Scattered Clouds,320,2013-06-29 13:55:00
9:15 AM,71.6,53.6,53,29.88,10.0,NW,16.1,23.0,N/A,,Clear,310,2013-06-29 14:15:00
9:35 AM,73.4,55.4,53,29.88,10.0,NW,16.1,23.0,N/A,,Clear,320,2013-06-29 14:35:00
9:55 AM,73.4,53.6,50,29.88,10.0,NNW,13.8,21.9,N/A,,Scattered Clouds,330,2013-06-29 14:55:00
10:15 AM,73.4,51.8,47,29.88,10.0,NW,17.3,25.3,N/A,,Clear,320,2013-06-29 15:15:00
10:35 AM,75.2,53.6,47,29.88,10.0,NNW,18.4,28.8,N/A,,Scattered Clouds,330,2013-06-29 15:35:00
10:55 AM,75.2,53.6,47,29.88,10.0,NNW,18.4,28.8,N/A,,Scattered Clouds,340,2013-06-29 15:55:00
11:15 AM,75.2,51.8,44,29.88,10.0,NNW,19.6,27.6,N/A,,Scattered Clouds,340,2013-06-29 16:15:00
11:35 AM,75.2,53.6,47,29.88,10.0,North,19.6,23.0,N/A,,Scattered Clouds,350,2013-06-29 16:35:00
11:55 AM,75.2,53.6,47,29.88,10.0,NNW,20.7,28.8,N/A,,Scattered Clouds,340,2013-06-29 16:55:00
12:15 PM,77.0,51.8,41,29.88,10.0,NW,15.0,27.6,N/A,,Scattered Clouds,320,2013-06-29 17:15:00
12:35 PM,77.0,51.8,41,29.87,10.0,NNW,15.0,26.5,N/A,,Mostly Cloudy,340,2013-06-29 17:35:00
12:55 PM,78.8,53.6,42,29.87,10.0,NNW,17.3,26.5,N/A,,Scattered Clouds,330,2013-06-29 17:55:00
1:15 PM,78.8,53.6,42,29.87,10.0,NNW,17.3,26.5,N/A,,Scattered Clouds,330,2013-06-29 18:15:00
1:35 PM,77.0,51.8,41,29.87,10.0,NNW,24.2,31.1,N/A,,Mostly Cloudy,330,2013-06-29 18:35:00
1:55 PM,78.8,50.0,36,29.87,10.0,North,21.9,28.8,N/A,,Mostly Cloudy,350,2013-06-29 18:55:00
2:15 PM,77.0,51.8,41,29.87,10.0,North,21.9,29.9,N/A,,Mostly Cloudy,350,2013-06-29 19:15:00
2:35 PM,75.2,55.4,50,29.89,10.0,North,23.0,32.2,N/A,,Mostly Cloudy,10,2013-06-29 19:35:00
2:55 PM,75.2,55.4,50,29.89,10.0,North,16.1,24.2,N/A,,Scattered Clouds,360,2013-06-29 19:55:00
3:15 PM,75.2,55.4,50,29.89,10.0,North,24.2,29.9,N/A,,Scattered Clouds,10,2013-06-29 20:15:00
3:35 PM,71.6,60.8,69,29.89,10.0,NNW,11.5,16.1,N/A,,Scattered Clouds,340,2013-06-29 20:35:00
3:55 PM,73.4,57.2,57,29.88,10.0,NNW,17.3,23.0,N/A,,Scattered Clouds,340,2013-06-29 20:55:00
4:15 PM,78.8,55.4,44,29.87,10.0,NNW,16.1,23.0,N/A,,Scattered Clouds,330,2013-06-29 21:15:00
4:35 PM,78.8,53.6,42,29.88,10.0,North,19.6,29.9,N/A,,Mostly Cloudy,360,2013-06-29 21:35:00
4:55 PM,64.4,57.2,77,29.91,10.0,North,18.4,31.1,0.09,Rain,Light Rain,350,2013-06-29 21:55:00
5:15 PM,66.2,57.2,73,29.90,10.0,North,11.5,20.7,N/A,,Scattered Clouds,350,2013-06-29 22:15:00
5:35 PM,69.8,59.0,68,29.89,10.0,NNW,11.5,16.1,N/A,,Scattered Clouds,340,2013-06-29 22:35:00
5:55 PM,73.4,59.0,61,29.89,10.0,NNW,11.5,17.3,N/A,,Scattered Clouds,330,2013-06-29 22:55:00
6:15 PM,73.4,57.2,57,29.88,10.0,North,11.5,18.4,N/A,,Clear,350,2013-06-29 23:15:00
6:35 PM,75.2,57.2,53,29.88,10.0,North,10.4,16.1,N/A,,Scattered Clouds,350,2013-06-29 23:35:00
6:55 PM,75.2,55.4,50,29.88,10.0,NNW,10.4,16.1,N/A,,Scattered Clouds,340,2013-06-29 23:55:00
7:15 PM,75.2,55.4,50,29.89,10.0,NNE,5.8,-,N/A,,Mostly Cloudy,30,2013-06-30 00:15:00
7:35 PM,73.4,55.4,53,29.89,10.0,North,8.1,-,N/A,,Scattered Clouds,350,2013-06-30 00:35:00
7:55 PM,73.4,53.6,50,29.89,10.0,North,11.5,-,N/A,,Mostly Cloudy,10,2013-06-30 00:55:00
8:15 PM,71.6,51.8,50,29.90,10.0,NNE,9.2,-,N/A,,Scattered Clouds,30,2013-06-30 01:15:00
8:35 PM,69.8,53.6,56,29.91,10.0,NNE,5.8,-,N/A,,Scattered Clouds,30,2013-06-30 01:35:00
8:55 PM,69.8,51.8,53,29.91,10.0,North,3.5,-,N/A,,Mostly Cloudy,10,2013-06-30 01:55:00
9:15 PM,68.0,53.6,60,29.91,10.0,North,3.5,-,N/A,,Overcast,360,2013-06-30 02:15:00
9:35 PM,66.2,53.6,64,29.92,10.0,North,3.5,-,N/A,,Overcast,360,2013-06-30 02:35:00
9:55 PM,66.2,53.6,64,29.92,10.0,North,3.5,-,N/A,,Scattered Clouds,350,2013-06-30 02:55:00
10:15 PM,66.2,53.6,64,29.93,10.0,North,4.6,-,N/A,,Scattered Clouds,350,2013-06-30 03:15:00
10:35 PM,66.2,53.6,64,29.94,10.0,Calm,Calm,-,N/A,,Mostly Cloudy,0,2013-06-30 03:35:00
10:55 PM,64.4,53.6,68,29.94,10.0,North,3.5,-,N/A,,Scattered Clouds,360,2013-06-30 03:55:00
11:15 PM,62.6,53.6,72,29.94,10.0,North,3.5,-,N/A,,Scattered Clouds,360,2013-06-30 04:15:00
11:35 PM,60.8,53.6,77,29.95,10.0,Calm,Calm,-,N/A,,Scattered Clouds,0,2013-06-30 04:35:00
11:55 PM,60.8,51.8,72,29.96,10.0,Calm,Calm,-,N/A,,Scattered Clouds,0,2013-06-30 04:55:00